Time;durP1;ratioP1;P1;durP2;ratioP2;P2;SDS_P1;SDS_P2;PMS_P1;PMS_P2;Temp;Humidity;BMP_temperature;BMP_pressure;BME280_temperature;BME280_humidity;BME280_pressure;Samples;Min_cycle;Max_cycle;Signal;HPM_P1;HPM_P2
2022/04/18 00:01:29;;;;;;;55.80;24.50;;;;;;;6.64;53.07;100846.78;5056151;28;20031;-79
2022/04/18 00:03:55;;;;;;;54.45;27.08;;;;;;;6.63;53.63;100836.69;5056216;28;20067;-79
2022/04/18 00:06:21;;;;;;;51.17;26.00;;;;;;;6.67;53.57;100834.56;5055901;28;20049;-78
2022/04/18 00:08:47;;;;;;;51.05;26.15;;;;;;;6.64;53.38;100837.50;5055704;28;20028;-78
2022/04/18 00:11:13;;;;;;;53.33;26.65;;;;;;;6.58;54.08;100822.25;5056814;28;20057;-79
2022/04/18 00:13:40;;;;;;;50.63;26.80;;;;;;;6.50;54.28;100828.09;5056805;28;20017;-79
2022/04/18 00:16:05;;;;;;;49.42;24.48;;;;;;;6.39;53.33;100818.25;5055777;28;20032;-79
2022/04/18 00:18:31;;;;;;;44.63;22.27;;;;;;;6.32;53.21;100812.72;5055732;28;20021;-79
2022/04/18 00:20:58;;;;;;;49.53;22.23;;;;;;;6.21;53.13;100829.16;5057071;28;20017;-79
2022/04/18 00:23:24;;;;;;;55.85;25.05;;;;;;;6.14;53.39;100826.47;5055548;28;20501;-79
2022/04/18 00:25:49;;;;;;;47.60;22.63;;;;;;;5.97;54.00;100817.13;5055624;28;20037;-79
2022/04/18 00:28:29;;;;;;;49.38;24.67;;;;;;;5.91;55.86;100819.66;5055541;28;20032;-79
2022/04/18 00:30:57;;;;;;;50.22;25.00;;;;;;;5.82;55.25;100810.13;5056855;28;20017;-79
2022/04/18 00:33:25;;;;;;;48.72;24.27;;;;;;;5.69;56.07;100801.50;5038436;28;20051;-79
2022/04/18 00:35:52;;;;;;;56.38;27.08;;;;;;;5.63;55.78;100806.03;5055246;28;20021;-79
2022/04/18 00:38:19;;;;;;;49.72;25.17;;;;;;;5.55;56.31;100801.78;5055312;28;20105;-79
2022/04/18 00:40:52;;;;;;;51.13;24.55;;;;;;;5.45;56.99;100808.41;5038953;28;20561;-79
2022/04/18 00:43:39;;;;;;;54.90;25.73;;;;;;;5.34;58.45;100797.31;5055512;28;20024;-79
2022/04/18 00:46:06;;;;;;;61.05;27.58;;;;;;;5.31;58.07;100798.19;5056061;28;20063;-79
2022/04/18 00:48:33;;;;;;;47.80;25.52;;;;;;;5.26;57.58;100787.38;5054962;28;20125;-79
2022/04/18 00:50:59;;;;;;;49.33;25.17;;;;;;;5.38;58.13;100786.72;5055062;28;20363;-79
2022/04/18 00:53:26;;;;;;;58.88;26.20;;;;;;;5.45;58.06;100786.63;5038317;28;20401;-79
2022/04/18 00:55:53;;;;;;;53.83;26.25;;;;;;;5.52;59.51;100782.88;5038382;28;20478;-79
2022/04/18 00:58:20;;;;;;;54.70;25.60;;;;;;;5.59;58.82;100785.53;5054962;28;20032;-79
2022/04/18 01:00:47;;;;;;;70.85;29.70;;;;;;;5.65;58.57;100770.47;5057147;28;20034;-79
2022/04/18 01:03:12;;;;;;;62.33;29.90;;;;;;;5.77;57.90;100776.72;5054888;28;20033;-79
2022/04/18 01:05:38;;;;;;;62.47;31.40;;;;;;;5.84;57.73;100780.19;5055870;28;20359;-78
2022/04/18 01:08:08;;;;;;;65.00;31.30;;;;;;;5.92;58.13;100772.41;5038177;28;20052;-78
2022/04/18 01:10:33;;;;;;;76.03;33.30;;;;;;;5.97;56.85;100769.84;5038132;28;20021;-78
2022/04/18 01:12:59;;;;;;;69.07;32.97;;;;;;;5.97;55.94;100758.53;5054517;28;20118;-80
2022/04/18 01:15:26;;;;;;;66.88;32.55;;;;;;;6.04;56.52;100754.75;5054596;28;20031;-78
2022/04/18 01:17:52;;;;;;;71.72;33.30;;;;;;;6.15;56.44;100758.16;5054975;28;20032;-78
2022/04/18 01:20:17;;;;;;;65.95;33.15;;;;;;;6.20;56.25;100762.50;5055067;28;20060;-78
2022/04/18 01:22:44;;;;;;;64.28;31.73;;;;;;;6.25;56.80;100759.16;5056268;28;20470;-78
2022/04/18 01:30:38;;;;;;;52.97;27.10;;;;;;;6.27;56.24;100746.16;5041114;28;20459;-79
2022/04/18 01:33:05;;;;;;;54.80;25.10;;;;;;;6.28;56.44;100744.13;5054213;28;20563;-78
2022/04/18 01:35:31;;;;;;;49.85;26.38;;;;;;;6.33;57.46;100746.44;5054322;28;20409;-79
2022/04/18 01:37:57;;;;;;;47.45;25.90;;;;;;;6.36;56.13;100751.22;5054340;28;20049;-79
2022/04/18 01:40:24;;;;;;;48.83;25.23;;;;;;;6.28;57.06;100730.78;5054127;28;20096;-78
2022/04/18 01:42:49;;;;;;;51.60;24.45;;;;;;;6.36;56.23;100745.56;5037957;28;20021;-79
2022/04/18 01:45:15;;;;;;;54.45;25.90;;;;;;;6.34;56.92;100739.56;5020841;28;20033;-79
2022/04/18 01:47:41;;;;;;;56.30;26.45;;;;;;;6.35;56.62;100739.13;5054007;28;20021;-78
2022/04/18 01:50:08;;;;;;;48.53;25.65;;;;;;;6.26;56.90;100724.78;5055296;28;20053;-79
2022/04/18 01:52:35;;;;;;;51.13;24.77;;;;;;;6.27;56.62;100734.84;5055358;28;20032;-79
2022/04/18 01:55:01;;;;;;;45.03;23.83;;;;;;;6.23;57.85;100722.81;5054933;28;20033;-79
2022/04/18 01:57:28;;;;;;;50.78;24.58;;;;;;;6.22;57.15;100728.91;5053696;28;20430;-80
2022/04/18 01:59:54;;;;;;;47.80;23.50;;;;;;;6.17;57.40;100724.56;5053722;28;20117;-79
2022/04/18 02:02:20;;;;;;;46.85;23.80;;;;;;;6.15;58.22;100720.59;5053786;28;20025;-80
2022/04/18 02:04:46;;;;;;;44.03;24.08;;;;;;;6.11;58.81;100714.22;5054923;28;20355;-79
2022/04/18 02:07:14;;;;;;;50.30;25.52;;;;;;;6.06;58.84;100707.06;5037111;28;20098;-79
2022/04/18 02:09:40;;;;;;;38.65;22.60;;;;;;;6.11;59.19;100717.06;5053561;28;20547;-79
2022/04/18 02:12:07;;;;;;;44.05;23.33;;;;;;;6.12;59.18;100707.34;5053546;28;20107;-79
2022/04/18 02:14:32;;;;;;;49.97;24.13;;;;;;;6.06;58.84;100705.03;5053716;28;20021;-79
2022/04/18 02:16:58;;;;;;;40.08;21.52;;;;;;;6.11;58.27;100715.03;5036253;28;20025;-79
2022/04/18 02:19:23;;;;;;;42.35;20.95;;;;;;;6.07;58.67;100706.59;5054891;28;20028;-78
2022/04/18 02:21:50;;;;;;;39.75;20.77;;;;;;;6.14;58.44;100707.69;5054588;28;20082;-79
2022/04/18 02:24:18;;;;;;;42.10;22.70;;;;;;;6.14;58.85;100702.84;5053218;28;20029;-79
2022/04/18 02:26:44;;;;;;;40.42;22.67;;;;;;;6.19;59.37;100710.00;5054400;28;20031;-79
2022/04/18 02:29:10;;;;;;;43.08;23.70;;;;;;;6.18;59.20;100702.75;5053110;28;20548;-79
2022/04/18 02:32:47;;;;;;;42.45;23.48;;;;;;;6.23;57.98;100700.19;5053317;28;20047;-79
2022/04/18 02:34:23;;;;;;;44.78;24.33;;;;;;;6.16;58.48;100679.78;5053257;28;20051;-79
2022/04/18 02:36:49;;;;;;;39.85;23.52;;;;;;;6.19;57.70;100693.03;5036584;28;20029;-79
2022/04/18 02:39:16;;;;;;;46.90;24.70;;;;;;;6.16;58.72;100688.25;5036354;28;20102;-79
2022/04/18 02:41:42;;;;;;;50.33;28.00;;;;;;;6.16;59.16;100691.91;5054396;28;20017;-79
2022/04/18 02:44:08;;;;;;;49.78;26.42;;;;;;;6.12;58.74;100684.72;5054252;28;20053;-79
2022/04/18 02:46:34;;;;;;;54.20;28.23;;;;;;;6.10;59.02;100678.69;5052995;28;20111;-79
2022/04/18 02:48:59;;;;;;;53.78;28.92;;;;;;;6.04;58.97;100676.41;5052820;28;20100;-79
2022/04/18 02:51:27;;;;;;;56.67;30.80;;;;;;;6.02;59.91;100669.56;5036174;28;20059;-79
2022/04/18 02:53:54;;;;;;;58.10;30.30;;;;;;;5.98;59.33;100666.03;5052667;28;20023;-79
2022/04/18 02:56:20;;;;;;;52.95;28.95;;;;;;;5.99;59.60;100673.28;5036468;28;20025;-79
2022/04/18 02:58:47;;;;;;;60.03;30.60;;;;;;;5.99;60.34;100674.09;5019736;28;20017;-79
2022/04/18 03:01:15;;;;;;;58.40;32.15;;;;;;;5.97;59.63;100675.78;5036093;28;20041;-79
2022/04/18 03:03:42;;;;;;;56.83;30.98;;;;;;;5.89;59.78;100658.16;5035992;28;20052;-79
2022/04/18 03:06:07;;;;;;;52.25;29.17;;;;;;;5.84;60.82;100649.38;5052547;28;20388;-80
2022/04/18 03:08:34;;;;;;;59.20;31.35;;;;;;;5.84;60.81;100657.84;5035868;28;20028;-80
2022/04/18 03:11:04;;;;;;;56.35;29.25;;;;;;;5.77;60.97;100650.34;5052584;28;20028;-79
2022/04/18 03:13:44;;;;;;;58.20;30.38;;;;;;;5.75;61.83;100664.09;5052785;28;20096;-78
2022/04/18 03:16:13;;;;;;;56.42;30.85;;;;;;;5.68;61.81;100660.63;5053650;28;20099;-79
2022/04/18 03:18:40;;;;;;;53.80;30.98;;;;;;;5.56;61.67;100645.16;5035981;28;20025;-79
2022/04/18 03:21:10;;;;;;;57.53;31.67;;;;;;;5.55;61.40;100652.03;5052367;28;20024;-79
2022/04/18 03:23:36;;;;;;;54.58;30.70;;;;;;;5.57;61.21;100649.59;5052453;28;20017;-78
2022/04/18 03:26:02;;;;;;;58.83;30.50;;;;;;;5.58;62.28;100648.31;5035644;28;20021;-78
2022/04/18 03:28:28;;;;;;;61.05;32.00;;;;;;;5.57;61.78;100643.94;5034738;28;20401;-78
2022/04/18 03:30:54;;;;;;;55.88;30.80;;;;;;;5.57;61.51;100641.09;5053272;28;20496;-78
2022/04/18 03:33:20;;;;;;;61.50;31.55;;;;;;;5.57;62.36;100647.56;5052351;28;20462;-79
2022/04/18 03:41:15;;;;;;;59.30;31.52;;;;;;;5.68;62.53;100644.47;5052309;28;20040;-79
2022/04/18 03:43:42;;;;;;;52.05;28.67;;;;;;;5.67;62.07;100637.25;5035471;28;20501;-78
2022/04/18 03:46:07;;;;;;;55.47;29.15;;;;;;;5.71;62.95;100648.47;5053667;28;20029;-79
2022/04/18 03:48:34;;;;;;;54.28;28.20;;;;;;;5.71;61.68;100645.66;5052141;28;20028;-79
2022/04/18 03:51:00;;;;;;;47.30;23.95;;;;;;;5.64;60.94;100644.56;5052005;28;20104;-78
2022/04/18 03:53:31;;;;;;;41.40;22.73;;;;;;;5.61;61.13;100639.00;5052057;28;20029;-80
2022/04/18 03:55:56;;;;;;;40.85;21.02;;;;;;;5.50;60.50;100629.94;5053164;28;20029;-80
2022/04/18 03:58:24;;;;;;;39.85;20.10;;;;;;;5.53;60.23;100646.81;5051993;28;20017;-80
2022/04/18 04:00:51;;;;;;;44.33;21.15;;;;;;;5.49;59.78;100650.94;5052151;28;20090;-80
2022/04/18 04:03:18;;;;;;;29.40;15.90;;;;;;;5.42;59.26;100651.13;5053255;28;20478;-79
2022/04/18 04:05:43;;;;;;;33.60;17.65;;;;;;;5.41;58.17;100649.50;5051925;28;20024;-78
2022/04/18 04:08:08;;;;;;;24.15;14.32;;;;;;;5.32;58.44;100641.63;5053082;28;20017;-79
2022/04/18 04:10:35;;;;;;;23.33;13.15;;;;;;;5.33;57.40;100643.19;5051966;28;20466;-79
2022/04/18 04:13:01;;;;;;;26.08;11.90;;;;;;;5.28;56.43;100640.13;5052013;28;20078;-80
2022/04/18 04:15:27;;;;;;;21.52;11.95;;;;;;;5.19;56.38;100641.47;5052020;28;20096;-80
2022/04/18 04:17:52;;;;;;;22.48;10.98;;;;;;;5.21;56.56;100641.84;5051764;28;20057;-80
2022/04/18 04:20:22;;;;;;;16.48;9.63;;;;;;;5.20;56.53;100643.06;5052081;28;20069;-80
2022/04/18 04:22:49;;;;;;;16.95;9.02;;;;;;;5.15;55.53;100637.94;5051695;28;20017;-80
2022/04/18 04:25:18;;;;;;;19.35;10.40;;;;;;;5.18;55.54;100648.34;5052049;28;20021;-79
2022/04/18 04:27:45;;;;;;;18.08;9.23;;;;;;;5.18;55.06;100642.69;5051729;28;20482;-79
2022/04/18 04:30:11;;;;;;;16.85;8.38;;;;;;;5.20;55.02;100647.91;5051736;28;20100;-79
2022/04/18 04:32:38;;;;;;;18.10;8.63;;;;;;;5.23;54.86;100656.31;5051551;28;20036;-78
2022/04/18 04:35:04;;;;;;;15.48;8.95;;;;;;;5.23;54.93;100653.47;5073150;28;20028;-80
2022/04/18 04:37:30;;;;;;;15.30;8.63;;;;;;;5.19;55.00;100652.75;5054781;28;20030;-79
2022/04/18 04:39:56;;;;;;;15.80;8.27;;;;;;;5.22;54.33;100649.09;5057020;28;20381;-79
2022/04/18 04:42:23;;;;;;;12.68;8.40;;;;;;;5.28;54.45;100654.22;5057508;28;20040;-79
2022/04/18 04:44:50;;;;;;;18.23;8.65;;;;;;;5.27;54.84;100642.13;5041729;28;20032;-79
2022/04/18 04:47:17;;;;;;;17.02;8.13;;;;;;;5.36;54.54;100652.84;5076486;28;20082;-78
2022/04/18 04:49:44;;;;;;;15.52;8.65;;;;;;;5.42;54.16;100651.13;5076355;28;20099;-79
2022/04/18 04:52:09;;;;;;;15.05;7.82;;;;;;;5.41;54.44;100641.84;5058267;28;20032;-79
2022/04/18 04:54:36;;;;;;;14.32;8.23;;;;;;;5.38;54.40;100644.75;5076313;28;20021;-79
2022/04/18 04:57:03;;;;;;;17.42;9.18;;;;;;;5.48;55.08;100646.53;5076083;28;20031;-79
2022/04/18 04:59:28;;;;;;;16.58;8.43;;;;;;;5.47;54.83;100651.41;5076438;28;20029;-79
2022/04/18 05:01:54;;;;;;;24.35;9.23;;;;;;;5.47;54.28;100642.13;5058401;28;20032;-80
2022/04/18 05:04:25;;;;;;;20.63;9.27;;;;;;;5.48;54.51;100649.34;5075578;28;20036;-80
2022/04/18 05:07:05;;;;;;;17.00;8.38;;;;;;;5.45;54.95;100645.38;5076002;28;20028;-79
2022/04/18 05:09:31;;;;;;;14.88;8.00;;;;;;;5.51;54.79;100651.31;5041456;28;20028;-80
2022/04/18 05:11:58;;;;;;;19.50;8.60;;;;;;;5.59;54.83;100649.91;5058182;28;20054;-80
2022/04/18 05:14:24;;;;;;;16.23;9.50;;;;;;;5.61;54.86;100645.44;5058161;28;20096;-80
2022/04/18 05:16:52;;;;;;;15.68;8.20;;;;;;;5.64;54.66;100655.06;5057363;28;20478;-79
2022/04/18 05:19:17;;;;;;;16.25;8.45;;;;;;;5.67;54.44;100657.03;5075858;28;20027;-78
2022/04/18 05:21:43;;;;;;;13.15;7.90;;;;;;;5.73;54.22;100660.91;5075383;28;20032;-78
2022/04/18 05:24:08;;;;;;;15.82;8.32;;;;;;;5.69;54.13;100654.53;5057523;28;20032;-78
2022/04/18 05:26:35;;;;;;;16.88;8.52;;;;;;;5.74;53.88;100648.38;5058095;28;20020;-79
2022/04/18 05:29:01;;;;;;;18.50;9.15;;;;;;;5.79;54.55;100656.34;5075729;28;20027;-79
2022/04/18 05:31:28;;;;;;;15.73;7.80;;;;;;;5.84;53.84;100649.38;5075542;28;20074;-79
2022/04/18 05:33:55;;;;;;;15.32;9.15;;;;;;;5.84;53.70;100652.19;5053358;28;20478;-79
2022/04/18 05:36:22;;;;;;;14.95;9.80;;;;;;;5.88;53.75;100656.56;5055821;28;20079;-78
2022/04/18 05:38:48;;;;;;;14.68;8.18;;;;;;;5.95;53.89;100655.63;5055502;28;20453;-80
2022/04/18 05:41:14;;;;;;;14.57;8.32;;;;;;;5.99;53.84;100657.13;5054047;28;20055;-79
2022/04/18 05:43:39;;;;;;;14.32;8.32;;;;;;;6.07;53.62;100658.53;5054274;28;20060;-79
2022/04/18 05:46:05;;;;;;;16.40;7.80;;;;;;;6.13;54.05;100653.16;5037650;28;20130;-79
2022/04/18 05:48:30;;;;;;;13.40;8.25;;;;;;;6.19;53.67;100653.44;5055530;28;20060;-79
2022/04/18 05:50:57;;;;;;;19.23;9.50;;;;;;;6.32;53.52;100652.28;5054455;28;20385;-78
2022/04/18 05:53:27;;;;;;;16.90;8.23;;;;;;;6.48;53.26;100654.31;5054517;28;20056;-79
2022/04/18 05:55:52;;;;;;;13.43;8.70;;;;;;;6.60;53.52;100650.81;5020992;28;20402;-79
2022/04/18 05:58:19;;;;;;;14.40;7.90;;;;;;;6.72;52.41;100647.22;5053789;28;20028;-78
2022/04/18 06:00:45;;;;;;;16.50;8.57;;;;;;;6.79;52.80;100654.75;5054701;28;20389;-79
2022/04/18 06:03:12;;;;;;;19.00;8.60;;;;;;;6.84;52.56;100655.00;5053735;28;20033;-79
2022/04/18 06:05:39;;;;;;;14.45;8.55;;;;;;;6.85;52.00;100653.78;5020580;28;20059;-80
2022/04/18 06:08:06;;;;;;;13.90;8.35;;;;;;;6.81;52.55;100633.22;5055072;28;20082;-80
2022/04/18 06:10:40;;;;;;;14.60;7.38;;;;;;;6.99;52.77;100654.63;5053726;28;20036;-80
2022/04/18 06:13:14;;;;;;;13.65;8.05;;;;;;;7.03;52.54;100658.16;5055025;28;20041;-80
2022/04/18 06:15:40;;;;;;;14.23;8.35;;;;;;;7.06;52.45;100658.03;5036912;28;20017;-80
2022/04/18 06:18:07;;;;;;;14.90;8.57;;;;;;;7.12;52.55;100658.28;5053395;28;20060;-80
2022/04/18 06:20:32;;;;;;;13.55;8.32;;;;;;;7.26;52.32;100658.69;5054666;28;20103;-79
2022/04/18 06:22:59;;;;;;;16.45;8.57;;;;;;;7.36;52.38;100653.97;5053598;28;20132;-80
2022/04/18 06:25:26;;;;;;;14.70;9.15;;;;;;;7.48;52.26;100649.59;5069841;28;20470;-80
2022/04/18 06:27:53;;;;;;;14.85;8.57;;;;;;;7.58;51.97;100651.31;5036436;28;20025;-79
2022/04/18 06:30:20;;;;;;;15.73;9.02;;;;;;;7.61;51.17;100653.25;5053206;28;20064;-78
2022/04/18 06:32:46;;;;;;;15.05;8.63;;;;;;;7.70;50.98;100650.53;5055530;28;20032;-78
2022/04/18 06:35:13;;;;;;;16.00;8.95;;;;;;;7.77;50.35;100653.97;5074309;28;20397;-78
2022/04/18 06:37:38;;;;;;;14.60;8.57;;;;;;;7.90;49.97;100653.97;5074332;28;20032;-78
2022/04/18 06:40:04;;;;;;;14.68;8.55;;;;;;;8.11;50.48;100647.63;5074949;28;20032;-78
2022/04/18 06:42:34;;;;;;;10.70;7.40;;;;;;;8.77;48.81;100654.41;5074470;28;20488;-77
2022/04/18 06:45:00;;;;;;;15.18;8.18;;;;;;;9.87;46.81;100647.50;5039727;28;20024;-77
2022/04/18 06:47:25;;;;;;;12.90;7.85;;;;;;;11.78;44.59;100642.16;5056752;28;20091;-78
2022/04/18 06:49:52;;;;;;;14.88;8.25;;;;;;;13.87;40.53;100630.59;5055814;28;20036;-79
2022/04/18 06:52:22;;;;;;;16.45;8.70;;;;;;;15.75;35.51;100623.88;5056257;28;20082;-79
2022/04/18 06:54:47;;;;;;;14.15;8.75;;;;;;;17.39;33.42;100620.25;5056383;28;20104;-79
2022/04/18 06:57:14;;;;;;;12.85;8.93;;;;;;;18.68;31.12;100621.94;5073887;28;20460;-80
2022/04/18 06:59:45;;;;;;;17.13;8.82;;;;;;;19.71;27.56;100622.56;5039831;28;20041;-80
2022/04/18 07:02:11;;;;;;;13.25;8.82;;;;;;;20.54;27.25;100615.31;5073933;28;20081;-79
2022/04/18 07:04:38;;;;;;;13.13;8.90;;;;;;;21.38;25.87;100610.16;5074324;28;20028;-79
2022/04/18 07:07:06;;;;;;;11.25;8.45;;;;;;;21.96;25.08;100615.38;5073823;28;20075;-80
2022/04/18 07:09:32;;;;;;;11.40;9.25;;;;;;;22.61;24.77;100614.78;5055721;28;20031;-80
2022/04/18 07:11:58;;;;;;;14.40;9.35;;;;;;;23.15;22.96;100611.38;5073659;28;20020;-80
2022/04/18 07:14:25;;;;;;;14.60;9.88;;;;;;;23.50;21.48;100606.44;5055752;28;20020;-80
2022/04/18 07:16:53;;;;;;;13.77;10.15;;;;;;;23.61;21.43;100612.78;5055951;28;20090;-80
2022/04/18 07:19:18;;;;;;;13.82;9.52;;;;;;;24.00;21.42;100614.00;5073597;28;20535;-80
2022/04/18 07:21:44;;;;;;;15.45;10.10;;;;;;;24.50;21.09;100618.56;5054587;28;20036;-81
2022/04/18 07:24:11;;;;;;;14.68;9.90;;;;;;;24.82;19.52;100616.09;5073809;28;20130;-80
2022/04/18 07:26:37;;;;;;;12.90;9.90;;;;;;;25.24;19.02;100618.91;5055380;28;20060;-81
2022/04/18 07:29:02;;;;;;;15.68;11.10;;;;;;;25.28;18.31;100619.31;5073909;28;20032;-82
2022/04/18 07:31:29;;;;;;;14.82;10.82;;;;;;;25.47;18.01;100622.72;5073860;28;20040;-82
2022/04/18 07:33:55;;;;;;;15.15;10.38;;;;;;;25.53;19.25;100622.56;5052075;28;20052;-82
2022/04/18 07:36:20;;;;;;;12.75;9.90;;;;;;;25.63;18.51;100626.53;5052075;28;20033;-82
2022/04/18 07:38:50;;;;;;;16.98;11.18;;;;;;;25.76;17.64;100609.63;5053416;28;20024;-82
2022/04/18 07:41:26;;;;;;;19.55;11.68;;;;;;;26.01;16.93;100600.34;5053393;28;20021;-81
2022/04/18 07:43:54;;;;;;;16.30;10.68;;;;;;;26.26;17.73;100612.31;5052583;28;20039;-81
2022/04/18 07:46:21;;;;;;;14.30;11.00;;;;;;;26.31;17.19;100623.81;5052170;28;20066;-81
2022/04/18 07:48:49;;;;;;;15.02;10.27;;;;;;;26.15;16.93;100622.97;5051928;28;20140;-81
2022/04/18 07:51:34;;;;;;;19.00;11.73;;;;;;;26.34;17.14;100618.94;5019104;28;20024;-81
2022/04/18 07:54:01;;;;;;;14.63;10.35;;;;;;;26.37;16.28;100624.41;5037927;28;20082;-82
2022/04/18 07:56:27;;;;;;;14.73;9.90;;;;;;;26.41;16.33;100618.16;5052117;28;20191;-82
2022/04/18 07:58:54;;;;;;;14.13;9.55;;;;;;;26.33;16.16;100618.16;5035390;28;20124;-81
2022/04/18 08:01:21;;;;;;;13.70;9.50;;;;;;;26.30;16.53;100616.41;5018863;28;20470;-82
2022/04/18 08:03:57;;;;;;;16.00;10.35;;;;;;;26.56;15.50;100621.09;5051663;28;20028;-81
2022/04/18 08:06:24;;;;;;;10.55;9.20;;;;;;;26.69;16.30;100608.44;5052192;28;20028;-81
2022/04/18 08:08:51;;;;;;;12.27;9.18;;;;;;;26.73;15.90;100606.69;5053112;28;20116;-82
2022/04/18 08:11:17;;;;;;;12.63;9.23;;;;;;;26.78;15.65;100604.91;5053323;28;20104;-82
2022/04/18 08:13:43;;;;;;;10.23;8.27;;;;;;;26.76;15.67;100601.78;5052944;28;20033;-82
2022/04/18 08:16:18;;;;;;;10.10;8.57;;;;;;;26.99;14.77;100599.63;5055710;28;20443;-81
2022/04/18 08:18:45;;;;;;;16.08;9.27;;;;;;;27.09;15.50;100600.56;5055888;28;20444;-82
2022/04/18 08:21:15;;;;;;;11.00;8.65;;;;;;;27.02;14.78;100613.09;5039183;28;20094;-81
2022/04/18 08:23:41;;;;;;;9.95;8.05;;;;;;;26.63;14.73;100609.41;5055810;28;20071;-82
2022/04/18 08:26:09;;;;;;;12.52;8.38;;;;;;;26.37;15.60;100603.94;5056778;28;20021;-82
2022/04/18 08:28:34;;;;;;;9.80;7.13;;;;;;;25.98;14.92;100608.16;5055437;28;20075;-82
2022/04/18 08:31:01;;;;;;;11.18;7.78;;;;;;;25.91;16.02;100611.03;5055528;28;20037;-82
2022/04/18 08:33:29;;;;;;;11.50;7.68;;;;;;;25.90;16.20;100610.28;5060888;28;20052;-82
2022/04/18 08:35:59;;;;;;;11.90;7.93;;;;;;;25.95;15.70;100594.69;5059394;28;20025;-81
2022/04/18 08:38:26;;;;;;;10.85;7.40;;;;;;;25.50;16.15;100603.31;5058990;28;20024;-81
2022/04/18 08:40:56;;;;;;;11.15;7.25;;;;;;;25.32;16.31;100603.00;5042261;28;20109;-81
2022/04/18 08:43:23;;;;;;;9.10;7.10;;;;;;;25.50;16.24;100603.31;5076910;28;20465;-81
2022/04/18 08:45:50;;;;;;;9.35;6.60;;;;;;;25.42;16.21;100608.31;5059153;28;20028;-81
2022/04/18 08:53:49;;;;;;;9.90;5.80;;;;;;;25.01;16.68;100592.56;5061343;28;20515;-81
2022/04/18 08:56:14;;;;;;;5.60;5.00;;;;;;;24.61;16.73;100594.97;5041875;28;20033;-82
2022/04/18 08:58:41;;;;;;;7.47;5.05;;;;;;;24.47;17.13;100587.69;5075817;28;20032;-82
2022/04/18 09:01:08;;;;;;;6.88;5.30;;;;;;;24.43;17.18;100587.25;5058436;28;20060;-82
2022/04/18 09:03:37;;;;;;;7.55;4.63;;;;;;;24.24;16.70;100575.03;5058770;28;20040;-82
2022/04/18 09:06:04;;;;;;;14.35;5.53;;;;;;;23.80;17.52;100571.88;5058142;28;20465;-81
2022/04/18 09:08:33;;;;;;;6.53;3.67;;;;;;;23.60;17.02;100579.22;5058142;28;20033;-82
2022/04/18 09:10:59;;;;;;;6.97;3.92;;;;;;;22.81;17.07;100582.22;5041456;28;20029;-81
2022/04/18 09:13:26;;;;;;;5.75;4.05;;;;;;;22.38;18.21;100570.09;5041594;28;20040;-82
2022/04/18 09:15:51;;;;;;;5.38;4.47;;;;;;;22.56;18.24;100571.34;5076134;28;20103;-82
2022/04/18 09:18:23;;;;;;;4.75;3.97;;;;;;;22.35;18.06;100566.16;5057660;28;20536;-82
2022/04/18 09:20:54;;;;;;;2.70;1.95;;;;;;;22.13;16.54;100554.19;5057794;28;20099;-82
2022/04/18 09:23:22;;;;;;;;;;;;;;;21.68;17.69;100568.59;5058601;28;20025;-82
2022/04/18 09:26:01;;;;;;;5.90;3.35;;;;;;;21.15;18.90;100561.75;5075849;28;19908;-82
2022/04/18 09:28:35;;;;;;;7.15;4.35;;;;;;;20.83;19.79;100568.16;5075890;28;20035;-81
2022/04/18 09:31:07;;;;;;;6.18;4.30;;;;;;;20.80;19.42;100557.66;5075629;28;20450;-82
2022/04/18 09:33:54;;;;;;;6.40;4.57;;;;;;;20.41;21.25;100552.31;5075282;28;20421;-80
2022/04/18 09:36:21;;;;;;;4.65;3.50;;;;;;;20.54;20.13;100554.53;5057462;28;20028;-81
2022/04/18 09:38:55;;;;;;;5.85;4.20;;;;;;;20.83;19.90;100538.41;5041200;28;20099;-81
2022/04/18 09:41:33;;;;;;;6.22;4.22;;;;;;;21.00;20.11;100541.88;5057607;28;20078;-81
2022/04/18 09:44:00;;;;;;;5.47;3.10;;;;;;;21.25;19.26;100543.41;5057391;28;20020;-81
2022/04/18 09:46:27;;;;;;;4.20;2.88;;;;;;;20.85;18.70;100536.53;5075511;28;20028;-81
2022/04/18 09:49:07;;;;;;;7.65;3.80;;;;;;;20.66;18.50;100547.31;5057341;28;20039;-81
2022/04/18 09:51:38;;;;;;;7.03;3.28;;;;;;;20.57;19.47;100545.53;5057449;28;20153;-81
2022/04/18 09:54:05;;;;;;;4.78;3.08;;;;;;;20.65;19.58;100528.38;5075083;28;20081;-81
2022/04/18 09:56:33;;;;;;;5.97;3.78;;;;;;;20.17;18.82;100529.91;5057094;28;20024;-81
2022/04/18 09:59:01;;;;;;;4.57;3.28;;;;;;;20.30;20.10;100534.25;5057365;28;20020;-81
2022/04/18 10:01:27;;;;;;;4.97;3.50;;;;;;;20.35;19.77;100537.13;5057419;28;20028;-81
2022/04/18 10:03:52;;;;;;;4.72;3.67;;;;;;;20.27;20.15;100530.34;5057341;28;20024;-81
2022/04/18 10:06:19;;;;;;;5.07;3.25;;;;;;;19.94;20.00;100522.75;5023835;28;20500;-80
2022/04/18 10:08:44;;;;;;;5.72;3.72;;;;;;;19.41;19.95;100519.22;5040438;28;20036;-81
2022/04/18 10:11:12;;;;;;;8.98;6.10;;;;;;;18.78;20.42;100518.53;5074839;28;20029;-81
2022/04/18 10:13:39;;;;;;;7.22;4.82;;;;;;;18.62;20.35;100525.13;5057167;28;20024;-81
2022/04/18 10:16:14;;;;;;;5.82;4.07;;;;;;;18.30;21.20;100527.56;5040528;28;20036;-81
2022/04/18 10:18:46;;;;;;;5.90;3.28;;;;;;;18.39;20.87;100522.31;5057302;28;20096;-81
2022/04/18 10:21:32;;;;;;;6.15;3.40;;;;;;;18.49;19.74;100519.91;5057226;28;20048;-80
2022/04/18 10:24:26;;;;;;;4.60;3.35;;;;;;;18.59;20.30;100518.34;5056559;28;20036;-80
2022/04/18 10:27:17;;;;;;;3.58;2.67;;;;;;;18.33;20.17;100512.09;5056964;28;20021;-80
2022/04/18 10:29:50;;;;;;;5.47;3.15;;;;;;;18.49;20.70;100514.94;5074399;28;20083;-80
2022/04/18 10:32:22;;;;;;;5.07;3.30;;;;;;;18.35;20.62;100506.59;5040453;28;20556;-81
2022/04/18 10:34:57;;;;;;;;;;;;;;;18.03;20.46;100512.66;5037511;28;20158;-81
2022/04/18 10:37:46;;;;;;;4.68;3.55;;;;;;;17.72;21.30;100504.28;5053952;28;19979;-81
2022/04/18 10:40:17;;;;;;;8.48;6.00;;;;;;;17.63;22.02;100514.00;5052792;28;20390;-81
2022/04/18 10:42:44;;;;;;;5.93;3.60;;;;;;;17.50;22.16;100492.75;5036663;28;20497;-81
2022/04/18 10:45:20;;;;;;;4.78;3.40;;;;;;;17.39;22.25;100502.16;5054423;28;20029;-80
2022/04/18 10:48:00;;;;;;;4.20;3.38;;;;;;;17.05;22.68;100504.19;5052809;28;20025;-80
2022/04/18 10:50:28;;;;;;;4.03;3.20;;;;;;;17.03;22.81;100506.00;5052918;28;20428;-80
2022/04/18 10:53:12;;;;;;;5.35;3.63;;;;;;;17.00;22.53;100507.06;5036537;28;20427;-80
2022/04/18 10:55:42;;;;;;;4.93;3.10;;;;;;;17.10;22.89;100497.66;5069355;28;20033;-81
2022/04/18 10:58:14;;;;;;;6.57;3.40;;;;;;;17.34;23.09;100484.88;5036328;28;20154;-80
2022/04/18 11:01:00;;;;;;;3.08;2.78;;;;;;;17.29;22.50;100495.09;5052770;28;20032;-80
2022/04/18 11:03:43;;;;;;;5.45;3.15;;;;;;;16.93;22.96;100484.53;5053014;28;20033;-81
2022/04/18 11:06:36;;;;;;;4.03;3.47;;;;;;;16.68;23.30;100489.16;5053785;28;20040;-80
2022/04/18 11:09:27;;;;;;;6.57;3.10;;;;;;;16.68;22.63;100486.28;5053554;28;20381;-81
2022/04/18 11:12:01;;;;;;;8.18;4.00;;;;;;;16.81;22.82;100483.72;5052957;28;20028;-80
2022/04/18 11:14:29;;;;;;;6.18;3.15;;;;;;;16.90;22.88;100482.69;5053828;28;20108;-80
2022/04/18 11:16:57;;;;;;;4.78;3.50;;;;;;;17.21;22.92;100474.66;5036279;28;20029;-80
2022/04/18 11:19:36;;;;;;;3.58;3.00;;;;;;;17.44;22.26;100463.16;5052184;28;20498;-80
2022/04/18 11:22:07;;;;;;;5.63;3.90;;;;;;;17.46;22.24;100474.94;5053921;28;20028;-81
2022/04/18 11:24:36;;;;;;;7.90;4.15;;;;;;;17.19;22.40;100480.16;5069097;28;20120;-80
2022/04/18 11:27:17;;;;;;;7.57;4.00;;;;;;;16.90;22.52;100480.63;5053718;28;20033;-79
2022/04/18 11:29:45;;;;;;;6.47;3.90;;;;;;;16.50;22.83;100469.44;5049236;28;20033;-80
2022/04/18 11:32:20;;;;;;;5.32;3.83;;;;;;;16.11;23.31;100475.78;5052319;28;20033;-80
2022/04/18 11:34:53;;;;;;;6.03;3.67;;;;;;;15.99;23.81;100471.28;5067957;28;20048;-81
2022/04/18 11:37:31;;;;;;;5.90;4.25;;;;;;;16.07;23.83;100469.50;5055851;28;20033;-80
2022/04/18 11:40:05;;;;;;;4.55;3.78;;;;;;;16.39;23.63;100465.22;5056925;28;20107;-81
2022/04/18 11:42:33;;;;;;;5.18;3.72;;;;;;;16.54;22.82;100464.22;5055689;28;20408;-81
2022/04/18 11:45:02;;;;;;;7.75;4.22;;;;;;;16.58;23.01;100462.72;5039408;28;20024;-81